OJAQ/AQJ METAR and TAF weather

Enter ICAO airport designator
Station Type Date Time Source
OJAQ METAR 2020/06/05 10:00 UTC NOAA

OJAQ 051000Z 36018KT 6000 NSC 33/11 Q1011 NOSIG


Station Type Date Time Source
OJAQ Decoded METAR 2020/06/05 10:00 UTC NOAA

Aqaba Airport, Jordan (OJAQ) 29-38N 035-01E 51M
Jun 05, 2020 - 06:00 AM EDT / 2020.06.05 1000 UTC
Wind: from the N (360 degrees) at 21 MPH (18 KT):0
Visibility: 3 mile(s):0
Temperature: 91 F (33 C)
Dew Point: 51 F (11 C)
Relative Humidity: 26%
Pressure (altimeter): 29.85 in. Hg (1011 hPa)
ob: OJAQ 051000Z 36018KT 6000 NSC 33/11 Q1011 NOSIG
cycle: 10

Station Type Date Time Source
OJAQ TAF 2020/06/05 12:15 UTC NOAA

TAF TAF OJAQ 051006Z 0512/0618 36014KT 6000 NSC
TEMPO 0512/0524 35020KT 4000 BLDU

Example: see airport list